Time;durP1;ratioP1;P1;durP2;ratioP2;P2;SDS_P1;SDS_P2;PMS_P1;PMS_P2;Temp;Humidity;BMP_temperature;BMP_pressure;BME280_temperature;BME280_humidity;BME280_pressure;Samples;Min_cycle;Max_cycle;Signal;HPM_P1;HPM_P2
2023/10/10 00:00:04;;;;;;;10.93;4.67;;;;;;;12.46;100.00;98113.41;6195598;28;20222;-58
2023/10/10 00:03:14;;;;;;;12.23;4.90;;;;;;;12.46;100.00;98118.75;6188552;28;20923;-58
2023/10/10 00:06:18;;;;;;;11.70;5.17;;;;;;;12.42;100.00;98116.84;6202261;28;20259;-57
2023/10/10 00:09:23;;;;;;;11.40;5.80;;;;;;;12.38;100.00;98103.16;6186665;28;20229;-57
2023/10/10 00:12:28;;;;;;;9.37;4.93;;;;;;;12.38;100.00;98127.19;6193785;28;20259;-58
2023/10/10 00:15:37;;;;;;;13.90;5.67;;;;;;;12.32;100.00;98114.81;6191604;28;20695;-58
2023/10/10 00:18:43;;;;;;;13.00;5.07;;;;;;;12.37;100.00;98123.72;6192970;28;20236;-57
2023/10/10 00:21:47;;;;;;;9.27;4.87;;;;;;;12.27;100.00;98106.72;6186660;28;20232;-57
2023/10/10 00:24:53;;;;;;;13.10;5.40;;;;;;;12.25;100.00;98114.94;6197918;28;20245;-56
2023/10/10 00:27:59;;;;;;;11.10;6.17;;;;;;;12.34;100.00;98126.06;6202402;28;20225;-58
2023/10/10 00:31:05;;;;;;;13.70;5.40;;;;;;;12.37;100.00;98130.94;6151058;28;20232;-56
2023/10/10 00:34:07;;;;;;;10.63;5.17;;;;;;;12.36;100.00;98126.59;6184754;28;20213;-58
2023/10/10 00:37:13;;;;;;;15.00;5.40;;;;;;;12.28;100.00;98111.81;6171358;28;20279;-58
2023/10/10 00:40:29;;;;;;;15.07;5.70;;;;;;;12.40;100.00;98122.41;6197342;28;20232;-58
2023/10/10 00:43:31;;;;;;;13.50;5.60;;;;;;;12.40;100.00;98127.75;6197872;28;20242;-58
2023/10/10 00:46:34;;;;;;;16.07;6.07;;;;;;;12.46;100.00;98128.63;6180189;28;20233;-57
2023/10/10 00:49:37;;;;;;;16.67;6.07;;;;;;;12.38;100.00;98128.00;6199698;28;20252;-57
2023/10/10 00:52:41;;;;;;;18.50;5.97;;;;;;;12.37;100.00;98126.38;6177068;28;20238;-58
2023/10/10 00:55:52;;;;;;;12.47;5.70;;;;;;;12.48;100.00;98121.22;6190836;28;20229;-58
2023/10/10 00:58:54;;;;;;;16.97;6.20;;;;;;;12.13;100.00;98076.84;6198629;28;20240;-58
2023/10/10 01:01:56;;;;;;;11.93;6.10;;;;;;;12.39;100.00;98126.13;6192252;28;20826;-58
2023/10/10 01:05:05;;;;;;;15.10;5.93;;;;;;;12.37;100.00;98122.91;6174515;28;20244;-58
2023/10/10 01:08:07;;;;;;;12.27;5.67;;;;;;;12.33;100.00;98127.13;6194094;28;21010;-58
2023/10/10 01:11:11;;;;;;;16.17;6.17;;;;;;;12.22;100.00;98103.97;6197133;28;20571;-58
2023/10/10 01:14:18;;;;;;;14.43;5.93;;;;;;;12.33;100.00;98135.13;6200986;28;20805;-56
2023/10/10 01:17:30;;;;;;;16.67;6.27;;;;;;;12.32;100.00;98125.50;6201015;28;20239;-57
2023/10/10 01:20:36;;;;;;;19.43;6.63;;;;;;;12.31;100.00;98131.88;6173871;28;20229;-55
2023/10/10 01:23:38;;;;;;;11.37;5.53;;;;;;;12.30;100.00;98138.28;6194815;28;20727;-58
2023/10/10 01:26:44;;;;;;;16.70;5.83;;;;;;;12.14;100.00;98143.34;6176327;28;20232;-59
2023/10/10 01:30:17;;;;;;;12.03;5.60;;;;;;;11.95;100.00;98141.94;6189715;28;20600;-57
2023/10/10 01:33:29;;;;;;;8.60;4.77;;;;;;;11.81;100.00;98135.22;6192455;28;20229;-58
2023/10/10 01:36:31;;;;;;;12.90;4.93;;;;;;;11.70;100.00;98133.41;6188475;28;20634;-55
2023/10/10 01:40:18;;;;;;;12.43;4.30;;;;;;;11.61;100.00;98127.63;6170216;28;20233;-58
2023/10/10 01:43:20;;;;;;;8.13;4.47;;;;;;;11.54;100.00;98126.97;6191274;28;20328;-55
2023/10/10 01:46:28;;;;;;;14.97;5.60;;;;;;;11.41;100.00;98128.03;6192761;28;20598;-58
2023/10/10 01:49:30;;;;;;;8.93;4.43;;;;;;;11.39;100.00;98135.47;6176261;28;20598;-58
2023/10/10 01:52:36;;;;;;;11.20;4.97;;;;;;;11.26;100.00;98111.72;6193153;28;20240;-55
2023/10/10 01:55:38;;;;;;;8.43;4.87;;;;;;;11.30;100.00;98132.38;6186764;28;20294;-55
2023/10/10 01:58:41;;;;;;;11.97;4.80;;;;;;;11.25;100.00;98136.78;6194883;28;20237;-58
2023/10/10 02:01:43;;;;;;;12.83;4.80;;;;;;;11.19;100.00;98143.06;6189940;28;20240;-58
2023/10/10 02:04:47;;;;;;;9.50;4.67;;;;;;;11.03;100.00;98126.75;6185135;28;20237;-58
2023/10/10 02:07:53;;;;;;;15.23;5.10;;;;;;;11.01;100.00;98136.81;6190062;28;20239;-57
2023/10/10 02:10:55;;;;;;;11.83;5.20;;;;;;;10.85;100.00;98125.00;6190681;28;20363;-58
2023/10/10 02:13:59;;;;;;;13.40;5.53;;;;;;;10.85;100.00;98125.00;6175198;28;20700;-56
2023/10/10 02:17:09;;;;;;;8.80;5.13;;;;;;;10.59;100.00;98093.50;6170562;28;20278;-56
2023/10/10 02:20:32;;;;;;;13.50;5.17;;;;;;;10.81;100.00;98136.34;6167349;28;20289;-57
2023/10/10 02:23:35;;;;;;;12.27;5.53;;;;;;;10.76;100.00;98147.72;6200636;28;20586;-57
2023/10/10 02:26:37;;;;;;;12.93;5.00;;;;;;;10.72;100.00;98141.22;6184601;28;20280;-58
2023/10/10 02:29:48;;;;;;;8.60;5.00;;;;;;;10.72;100.00;98141.22;6196411;28;20701;-58
2023/10/10 02:32:50;;;;;;;13.77;5.13;;;;;;;10.73;100.00;98137.50;6191750;28;20232;-55
2023/10/10 02:35:56;;;;;;;10.57;4.87;;;;;;;10.75;100.00;98131.97;6190743;28;20242;-58
2023/10/10 02:42:34;;;;;;;13.43;5.63;;;;;;;10.77;100.00;98125.34;6145546;28;20242;-56
2023/10/10 02:45:36;;;;;;;12.17;5.97;;;;;;;10.71;100.00;98120.94;6148676;28;20241;-57
2023/10/10 02:48:42;;;;;;;16.73;6.63;;;;;;;10.66;100.00;98109.34;6146785;28;20236;-57
2023/10/10 02:51:48;;;;;;;10.13;5.67;;;;;;;10.83;100.00;98135.06;6119056;28;20602;-58
2023/10/10 02:54:54;;;;;;;10.33;5.53;;;;;;;10.91;100.00;98128.59;6143253;28;20238;-55
2023/10/10 02:57:59;;;;;;;17.27;6.40;;;;;;;10.99;100.00;98136.25;6142062;28;20237;-58
2023/10/10 03:01:04;;;;;;;20.33;6.07;;;;;;;11.05;100.00;98132.63;6141492;28;20596;-57
2023/10/10 03:04:08;;;;;;;10.37;5.77;;;;;;;11.14;100.00;98137.63;6145582;28;20246;-57
2023/10/10 03:07:19;;;;;;;13.33;6.07;;;;;;;11.17;100.00;98134.47;6150661;28;20232;-58
2023/10/10 03:10:37;;;;;;;13.67;6.63;;;;;;;11.31;100.00;98136.66;6131546;28;20500;-58
2023/10/10 03:13:48;;;;;;;13.17;6.20;;;;;;;11.36;100.00;98139.41;6133506;28;20659;-58
2023/10/10 03:17:03;;;;;;;16.20;6.50;;;;;;;11.39;100.00;98140.81;6139120;28;20249;-56
2023/10/10 03:20:39;;;;;;;14.57;7.20;;;;;;;11.72;100.00;98128.63;6194039;28;20233;-58
2023/10/10 03:26:59;;;;;;;16.70;6.97;;;;;;;11.82;100.00;98126.19;6190699;28;20253;-57
2023/10/10 03:30:17;;;;;;;14.63;6.53;;;;;;;11.93;100.00;98128.03;6190265;28;20779;-58
2023/10/10 03:33:42;;;;;;;24.50;8.43;;;;;;;12.29;100.00;98129.44;6198047;28;20223;-58
2023/10/10 05:24:51;;;;;;;12.93;5.10;;;;;;;12.22;100.00;98147.50;6195654;28;20228;-58
2023/10/10 05:27:58;;;;;;;9.50;5.43;;;;;;;12.20;100.00;98146.09;6193320;28;20238;-57
2023/10/10 05:31:02;;;;;;;11.27;5.70;;;;;;;12.25;100.00;98162.22;6198891;28;20236;-56
2023/10/10 05:34:07;;;;;;;12.43;6.57;;;;;;;12.27;100.00;98162.81;6196009;28;20228;-58
2023/10/10 05:37:09;;;;;;;12.80;6.60;;;;;;;12.28;100.00;98161.75;6191858;28;20236;-58
2023/10/10 05:40:13;;;;;;;13.90;6.20;;;;;;;12.16;100.00;98140.44;6192373;28;20334;-57
2023/10/10 05:43:16;;;;;;;10.27;5.80;;;;;;;12.32;100.00;98177.06;6182865;28;20233;-56
2023/10/10 05:46:18;;;;;;;13.90;5.93;;;;;;;12.35;100.00;98191.78;6173172;28;20241;-58
2023/10/10 05:49:21;;;;;;;11.23;5.63;;;;;;;12.42;100.00;98194.31;6172163;28;20226;-58
2023/10/10 05:52:23;;;;;;;15.20;6.00;;;;;;;12.35;100.00;98184.56;6169965;28;20729;-58
2023/10/10 05:55:26;;;;;;;9.43;5.60;;;;;;;12.53;100.00;98202.28;6167146;28;20233;-58
2023/10/10 05:58:28;;;;;;;17.23;7.73;;;;;;;12.75;100.00;98190.84;6169267;28;20276;-58
2023/10/10 06:01:30;;;;;;;10.87;6.10;;;;;;;12.88;100.00;98193.22;6168181;28;20240;-58
2023/10/10 06:04:32;;;;;;;11.33;5.93;;;;;;;12.97;100.00;98198.97;6170187;28;20232;-58
2023/10/10 06:07:43;;;;;;;13.30;6.10;;;;;;;13.03;100.00;98206.81;6164467;28;20230;-56
2023/10/10 06:10:45;;;;;;;18.43;6.37;;;;;;;13.11;100.00;98201.06;6162789;28;20682;-58
2023/10/10 06:13:48;;;;;;;11.50;6.47;;;;;;;13.14;100.00;98205.91;6177027;28;20909;-58
2023/10/10 06:16:52;;;;;;;15.40;6.63;;;;;;;13.17;100.00;98200.06;6155740;28;20244;-58
2023/10/10 06:19:56;;;;;;;16.00;6.93;;;;;;;13.33;100.00;98216.38;6178752;28;20232;-58
2023/10/10 06:22:59;;;;;;;14.33;5.93;;;;;;;13.29;100.00;98208.03;6169225;28;20265;-58
2023/10/10 06:26:02;;;;;;;11.80;5.97;;;;;;;13.37;100.00;98222.84;6167945;28;20233;-58
2023/10/10 06:29:04;;;;;;;9.60;5.83;;;;;;;13.39;100.00;98216.19;6161860;28;20229;-54
2023/10/10 06:32:10;;;;;;;12.07;5.70;;;;;;;13.41;100.00;98232.81;6162019;28;20248;-58
2023/10/10 06:38:24;;;;;;;13.10;5.90;;;;;;;13.44;100.00;98231.50;6159895;28;20240;-58
2023/10/10 06:41:27;;;;;;;10.50;5.43;;;;;;;13.45;100.00;98241.19;6172236;28;20236;-56
2023/10/10 06:44:35;;;;;;;10.80;5.33;;;;;;;13.43;100.00;98254.78;6167689;28;20237;-58
2023/10/10 06:47:43;;;;;;;10.40;5.80;;;;;;;13.45;100.00;98269.78;6168002;28;20335;-58
2023/10/10 06:50:49;;;;;;;8.60;5.60;;;;;;;13.43;100.00;98268.16;6172465;28;20625;-58
2023/10/10 06:53:54;;;;;;;10.37;5.27;;;;;;;13.43;100.00;98270.84;6162387;28;20226;-57
2023/10/10 07:00:53;;;;;;;8.40;5.00;;;;;;;13.41;100.00;98283.69;6168712;28;20928;-58
2023/10/10 07:03:39;;;;;;;10.00;5.23;;;;;;;13.40;100.00;98276.72;6169573;28;20229;-57
2023/10/10 07:06:47;;;;;;;11.20;5.17;;;;;;;13.41;100.00;98282.88;6178097;28;20320;-58
2023/10/10 07:09:57;;;;;;;6.73;4.40;;;;;;;13.41;100.00;98267.63;6172650;28;20375;-58
2023/10/10 07:13:01;;;;;;;8.63;4.70;;;;;;;13.43;100.00;98278.88;6171378;28;20604;-58
2023/10/10 07:16:03;;;;;;;7.50;4.80;;;;;;;13.44;100.00;98268.97;6166628;28;20241;-58
2023/10/10 07:19:19;;;;;;;7.13;4.60;;;;;;;13.44;100.00;98277.00;6164471;28;20702;-58
2023/10/10 07:22:22;;;;;;;7.03;4.77;;;;;;;13.43;100.00;98265.50;6181479;28;20217;-58
2023/10/10 07:25:43;;;;;;;6.37;4.73;;;;;;;13.45;100.00;98264.44;6169036;28;20623;-58
2023/10/10 07:28:52;;;;;;;7.37;4.60;;;;;;;13.42;100.00;98263.06;6168564;28;20270;-58
2023/10/10 07:32:06;;;;;;;8.13;4.83;;;;;;;13.47;100.00;98271.16;6169394;28;20314;-58
2023/10/10 07:35:14;;;;;;;7.73;5.53;;;;;;;13.57;100.00;98262.47;6172243;28;20292;-58
2023/10/10 07:38:31;;;;;;;10.30;6.30;;;;;;;13.55;100.00;98265.41;6176543;28;20602;-58
2023/10/10 07:41:35;;;;;;;7.77;4.90;;;;;;;13.48;100.00;98250.56;6179080;28;20244;-58
2023/10/10 07:44:38;;;;;;;9.57;5.40;;;;;;;13.56;100.00;98256.31;6172625;28;20233;-58
2023/10/10 07:51:08;;;;;;;8.57;5.47;;;;;;;13.66;100.00;98264.47;6174806;28;20233;-58
2023/10/10 07:54:12;;;;;;;6.17;4.53;;;;;;;13.70;100.00;98261.31;6171238;28;20769;-58
2023/10/10 07:57:17;;;;;;;6.43;4.83;;;;;;;13.70;100.00;98261.31;6169882;28;20229;-57
2023/10/10 08:00:26;;;;;;;10.20;5.73;;;;;;;13.72;100.00;98270.72;6173577;28;20709;-58
2023/10/10 08:03:31;;;;;;;9.63;5.50;;;;;;;13.71;100.00;98279.00;6174850;28;20328;-58
2023/10/10 08:06:33;;;;;;;13.87;6.53;;;;;;;13.68;100.00;98265.03;6175486;28;20966;-58
2023/10/10 08:09:37;;;;;;;9.23;5.90;;;;;;;13.76;100.00;98271.03;6169923;28;20321;-58
2023/10/10 08:12:40;;;;;;;11.70;6.00;;;;;;;13.69;100.00;98260.50;6170239;28;20360;-58
2023/10/10 08:15:56;;;;;;;12.13;5.87;;;;;;;13.79;100.00;98270.53;6175422;28;20225;-58
2023/10/10 08:19:04;;;;;;;12.23;5.67;;;;;;;13.72;100.00;98262.69;6168650;28;20266;-58
2023/10/10 08:22:12;;;;;;;12.23;5.60;;;;;;;13.76;100.00;98277.19;6163367;28;20304;-58
2023/10/10 08:25:15;;;;;;;10.53;6.03;;;;;;;13.76;100.00;98279.06;6170589;28;20229;-57
2023/10/10 08:28:18;;;;;;;9.83;5.57;;;;;;;13.76;100.00;98271.03;6146509;28;20237;-55
2023/10/10 08:31:22;;;;;;;11.07;6.67;;;;;;;13.76;100.00;98268.38;6176870;28;20240;-58
2023/10/10 08:34:25;;;;;;;13.30;6.53;;;;;;;13.78;100.00;98275.06;6174061;28;20233;-58
2023/10/10 08:37:28;;;;;;;11.33;6.53;;;;;;;13.78;100.00;98282.31;6157664;28;20689;-58
2023/10/10 08:40:36;;;;;;;11.10;6.63;;;;;;;13.80;100.00;98291.72;6169215;28;20747;-57
2023/10/10 08:43:45;;;;;;;11.77;6.77;;;;;;;13.84;100.00;98284.81;6171030;28;20328;-58
2023/10/10 08:46:48;;;;;;;13.07;6.30;;;;;;;13.87;100.00;98288.84;6160952;28;20227;-58
2023/10/10 08:49:51;;;;;;;10.07;5.53;;;;;;;13.92;100.00;98305.78;6178473;28;20709;-56
2023/10/10 08:52:54;;;;;;;14.07;7.00;;;;;;;13.93;100.00;98296.69;6165557;28;20230;-58
2023/10/10 08:55:56;;;;;;;13.77;7.40;;;;;;;13.97;100.00;98297.03;6164480;28;20265;-58
2023/10/10 08:59:01;;;;;;;15.47;7.23;;;;;;;13.96;100.00;98311.47;6165257;28;20272;-58
2023/10/10 09:02:19;;;;;;;15.33;6.90;;;;;;;13.98;100.00;98316.56;6167852;28;20752;-58
2023/10/10 09:05:24;;;;;;;16.50;7.93;;;;;;;14.04;100.00;98320.94;6171353;28;20300;-57
2023/10/10 09:08:27;;;;;;;14.27;6.63;;;;;;;14.05;100.00;98315.34;6164879;28;20287;-58
2023/10/10 09:11:31;;;;;;;13.33;7.53;;;;;;;14.10;100.00;98323.44;6158126;28;20236;-56
2023/10/10 09:14:41;;;;;;;12.33;5.67;;;;;;;14.14;100.00;98326.44;6177268;28;20236;-57
2023/10/10 09:17:45;;;;;;;15.27;6.87;;;;;;;14.19;100.00;98316.59;6178439;28;20221;-58
2023/10/10 09:20:48;;;;;;;15.03;7.90;;;;;;;14.30;100.00;98332.81;6168729;28;20234;-57
2023/10/10 09:24:07;;;;;;;12.77;6.87;;;;;;;14.36;100.00;98337.97;6171478;28;20229;-58
2023/10/10 09:27:27;;;;;;;10.93;6.80;;;;;;;14.44;100.00;98336.72;6168165;28;20758;-58
2023/10/10 09:34:12;;;;;;;16.53;6.87;;;;;;;14.42;100.00;98320.06;6134103;28;20628;-56
2023/10/10 09:37:17;;;;;;;14.37;6.07;;;;;;;14.42;100.00;98306.66;6133919;28;20238;-57
2023/10/10 09:40:20;;;;;;;12.40;6.33;;;;;;;14.57;100.00;98330.19;6154579;28;20242;-55
2023/10/10 09:43:35;;;;;;;14.47;6.63;;;;;;;14.60;100.00;98335.06;6132167;28;20241;-58
2023/10/10 09:47:12;;;;;;;12.00;6.83;;;;;;;14.65;100.00;98333.25;6144521;28;20249;-57
2023/10/10 09:53:23;;;;;;;18.33;6.80;;;;;;;14.85;100.00;98340.69;6121552;28;20239;-57
2023/10/10 09:56:25;;;;;;;13.90;6.93;;;;;;;14.93;100.00;98340.25;6139169;28;20234;-55
2023/10/10 09:59:30;;;;;;;15.57;8.13;;;;;;;15.00;100.00;98341.91;6148030;28;20369;-58
2023/10/10 10:02:48;;;;;;;20.17;8.07;;;;;;;15.01;100.00;98338.97;6138906;28;20240;-57
2023/10/10 10:06:54;;;;;;;15.67;7.07;;;;;;;15.08;100.00;98353.00;6142691;28;20738;-57
2023/10/10 10:10:12;;;;;;;12.97;6.37;;;;;;;15.18;100.00;98342.34;6118020;28;20380;-58
2023/10/10 10:13:40;;;;;;;17.20;7.00;;;;;;;15.28;100.00;98340.81;6130352;28;20234;-57
2023/10/10 10:16:50;;;;;;;17.70;7.10;;;;;;;15.36;100.00;98326.91;6149797;28;20320;-56
2023/10/10 10:20:19;;;;;;;13.20;7.20;;;;;;;15.33;100.00;98320.19;6138872;28;20376;-57
2023/10/10 10:23:48;;;;;;;11.03;6.23;;;;;;;15.51;100.00;98307.41;6152930;28;20226;-58
2023/10/10 10:27:12;;;;;;;13.27;6.37;;;;;;;15.55;100.00;98308.53;6144981;28;20374;-57
2023/10/10 10:33:23;;;;;;;14.57;7.17;;;;;;;15.57;100.00;98304.53;6141041;28;20230;-57
2023/10/10 10:36:27;;;;;;;15.23;6.77;;;;;;;15.73;100.00;98289.34;6142290;28;20703;-55
2023/10/10 10:39:35;;;;;;;10.10;6.87;;;;;;;15.94;100.00;98303.69;6146563;28;20607;-58
2023/10/10 10:42:50;;;;;;;17.47;6.43;;;;;;;16.05;100.00;98309.91;6146776;28;20306;-57
2023/10/10 10:45:52;;;;;;;13.57;6.90;;;;;;;16.04;100.00;98298.34;6180557;28;20235;-58
2023/10/10 10:49:05;;;;;;;10.77;5.93;;;;;;;16.09;100.00;98298.38;6192887;28;20397;-57
2023/10/10 10:52:47;;;;;;;9.80;5.67;;;;;;;16.18;100.00;98299.50;6198590;28;20768;-56
2023/10/10 10:59:21;;;;;;;15.93;6.37;;;;;;;16.15;100.00;98297.31;6190507;28;20217;-58
2023/10/10 11:02:30;;;;;;;10.53;5.50;;;;;;;16.17;100.00;98297.09;6190273;28;20256;-58
2023/10/10 11:05:34;;;;;;;10.27;5.90;;;;;;;16.17;100.00;98294.41;6196095;28;20976;-58
2023/10/10 11:08:52;;;;;;;11.43;5.13;;;;;;;16.10;100.00;98294.63;6186625;28;20237;-57
2023/10/10 11:12:02;;;;;;;10.23;5.20;;;;;;;16.09;100.00;98289.50;6186423;28;20717;-58
2023/10/10 11:15:10;;;;;;;11.27;5.80;;;;;;;16.10;100.00;98293.81;6189680;28;20777;-58
2023/10/10 11:18:13;;;;;;;7.70;5.13;;;;;;;16.16;100.00;98288.22;6193105;28;20221;-57
2023/10/10 11:21:27;;;;;;;9.90;5.37;;;;;;;16.19;100.00;98290.34;6191479;28;20229;-55
2023/10/10 11:24:34;;;;;;;13.03;5.40;;;;;;;16.25;100.00;98288.50;6193567;28;20816;-58
2023/10/10 11:27:43;;;;;;;11.20;5.77;;;;;;;16.28;100.00;98279.91;6192194;28;20287;-58
2023/10/10 11:30:46;;;;;;;10.47;5.10;;;;;;;16.32;100.00;98277.50;6192342;28;20229;-57
2023/10/10 11:33:55;;;;;;;16.20;5.83;;;;;;;16.41;100.00;98284.00;6194304;28;20236;-58
2023/10/10 11:37:14;;;;;;;15.40;5.80;;;;;;;16.69;100.00;98274.63;6191947;28;20312;-55
2023/10/10 11:40:19;;;;;;;11.30;4.93;;;;;;;16.79;100.00;98282.75;6191414;28;20897;-55
2023/10/10 11:43:23;;;;;;;14.33;6.33;;;;;;;16.79;100.00;98268.50;6195110;28;20244;-58
2023/10/10 11:46:27;;;;;;;11.43;5.13;;;;;;;16.89;100.00;98271.19;6195125;28;20275;-58
2023/10/10 11:49:31;;;;;;;11.13;5.30;;;;;;;16.87;100.00;98268.78;6201021;28;20396;-57
2023/10/10 11:52:33;;;;;;;8.87;4.67;;;;;;;17.01;100.00;98272.56;6202370;28;20232;-57
2023/10/10 11:55:36;;;;;;;10.77;5.63;;;;;;;17.11;97.08;98263.66;6193417;28;20232;-58
2023/10/10 11:58:38;;;;;;;9.73;4.67;;;;;;;17.23;93.61;98264.19;6187986;28;20225;-57
2023/10/10 12:01:51;;;;;;;10.43;5.00;;;;;;;17.34;99.09;98259.63;6193682;28;20241;-58
2023/10/10 12:04:54;;;;;;;11.00;4.77;;;;;;;17.26;100.00;98252.88;6196172;28;20324;-57
2023/10/10 12:08:00;;;;;;;10.03;4.70;;;;;;;17.25;100.00;98263.94;6197133;28;20728;-58
2023/10/10 12:11:04;;;;;;;8.87;4.47;;;;;;;17.26;100.00;98258.28;6189825;28;20375;-58
2023/10/10 12:14:11;;;;;;;7.50;4.13;;;;;;;17.26;100.00;98257.47;6201009;28;20736;-58
2023/10/10 12:17:14;;;;;;;7.17;4.37;;;;;;;17.46;100.00;98253.94;6202493;28;20239;-58
2023/10/10 12:20:16;;;;;;;10.80;4.40;;;;;;;17.54;100.00;98264.19;6188094;28;20240;-58
2023/10/10 12:23:20;;;;;;;8.20;3.63;;;;;;;17.42;100.00;98255.56;6201036;28;20232;-55
2023/10/10 12:26:23;;;;;;;9.17;4.60;;;;;;;17.34;100.00;98267.72;6202642;28;20713;-57
2023/10/10 12:29:28;;;;;;;7.37;4.27;;;;;;;17.15;100.00;98259.38;6188505;28;20241;-57
2023/10/10 12:32:34;;;;;;;10.63;4.50;;;;;;;17.03;100.00;98261.50;6194406;28;20252;-58
2023/10/10 12:35:36;;;;;;;10.27;4.97;;;;;;;17.02;100.00;98270.66;6194458;28;20221;-56
2023/10/10 12:38:39;;;;;;;9.00;5.07;;;;;;;16.94;100.00;98268.50;6190664;28;20721;-58
2023/10/10 12:41:47;;;;;;;9.93;4.67;;;;;;;16.89;100.00;98268.50;6197152;28;20375;-58
2023/10/10 12:44:50;;;;;;;9.00;4.33;;;;;;;16.91;100.00;98266.34;6198442;28;20308;-58
2023/10/10 12:47:53;;;;;;;10.27;4.20;;;;;;;16.83;100.00;98261.50;6198290;28;20274;-58
2023/10/10 12:51:12;;;;;;;7.23;4.30;;;;;;;16.82;100.00;98267.97;6184906;28;20266;-58
2023/10/10 12:54:37;;;;;;;10.23;4.80;;;;;;;16.89;94.71;98258.53;6190826;28;20236;-58
2023/10/10 12:57:44;;;;;;;9.90;4.10;;;;;;;16.95;100.00;98265.56;6190572;28;20295;-58
2023/10/10 13:01:12;;;;;;;7.67;4.23;;;;;;;16.94;100.00;98273.88;6196082;28;20287;-58
2023/10/10 13:04:38;;;;;;;7.47;4.73;;;;;;;16.87;99.81;98271.47;6189746;28;20315;-57
2023/10/10 13:07:43;;;;;;;10.77;5.50;;;;;;;17.04;91.86;98268.50;6196851;28;20240;-58
2023/10/10 13:11:00;;;;;;;6.47;4.20;;;;;;;17.18;89.47;98268.78;6182626;28;20234;-58
2023/10/10 13:14:19;;;;;;;8.17;4.30;;;;;;;17.20;96.49;98264.75;6175065;28;20238;-58
2023/10/10 13:17:50;;;;;;;9.97;4.63;;;;;;;17.15;100.00;98262.06;6170782;28;20229;-58
2023/10/10 13:20:53;;;;;;;7.43;4.20;;;;;;;17.01;100.00;98253.72;6203095;28;20571;-58
2023/10/10 13:24:01;;;;;;;10.40;4.70;;;;;;;17.07;100.00;98267.97;6193595;28;20367;-58
2023/10/10 13:27:21;;;;;;;7.87;4.67;;;;;;;17.03;100.00;98264.19;6193566;28;20228;-58
2023/10/10 13:30:48;;;;;;;6.40;4.03;;;;;;;16.96;100.00;98259.09;6178842;28;20225;-58
2023/10/10 13:33:53;;;;;;;6.60;4.13;;;;;;;16.97;100.00;98266.09;6185513;28;20237;-58
2023/10/10 13:36:57;;;;;;;7.57;3.83;;;;;;;17.04;100.00;98263.13;6186315;28;20229;-56
2023/10/10 13:40:06;;;;;;;10.83;4.50;;;;;;;16.99;100.00;98241.59;6178419;28;20581;-58
2023/10/10 13:43:16;;;;;;;7.83;4.57;;;;;;;17.11;100.00;98249.41;6195845;28;20241;-58
2023/10/10 13:46:23;;;;;;;9.57;4.63;;;;;;;17.15;98.59;98251.28;6195898;28;20233;-58
2023/10/10 13:49:28;;;;;;;9.43;4.23;;;;;;;17.25;100.00;98248.59;6200399;28;20774;-58
2023/10/10 13:52:32;;;;;;;9.03;4.63;;;;;;;17.18;95.78;98242.66;6197526;28;20229;-58
2023/10/10 13:55:42;;;;;;;12.63;5.27;;;;;;;17.21;96.63;98252.91;6174332;28;20229;-57
2023/10/10 13:58:47;;;;;;;8.37;4.57;;;;;;;17.21;99.07;98252.09;6188958;28;20875;-56
2023/10/10 14:01:53;;;;;;;10.43;4.50;;;;;;;17.07;100.00;98234.88;6185737;28;20232;-58
2023/10/10 14:05:00;;;;;;;11.30;4.53;;;;;;;17.17;100.00;98246.44;6185420;28;20217;-58
2023/10/10 14:08:06;;;;;;;7.93;4.23;;;;;;;17.10;100.00;98248.59;6195555;28;20731;-58
2023/10/10 14:11:11;;;;;;;6.63;4.57;;;;;;;17.06;100.00;98252.91;6198841;28;20609;-58
2023/10/10 14:14:13;;;;;;;8.03;4.70;;;;;;;17.02;100.00;98246.44;6193943;28;20234;-58
2023/10/10 14:17:15;;;;;;;11.23;5.00;;;;;;;16.95;100.00;98243.22;6194480;28;20236;-58
2023/10/10 14:20:21;;;;;;;7.40;4.73;;;;;;;17.00;100.00;98243.22;6196716;28;20577;-58
2023/10/10 14:23:25;;;;;;;10.10;4.70;;;;;;;16.97;100.00;98244.56;6198976;28;20237;-58
2023/10/10 14:26:30;;;;;;;10.57;4.50;;;;;;;17.02;100.00;98249.13;6196051;28;20240;-58
2023/10/10 14:29:41;;;;;;;8.27;4.00;;;;;;;17.06;100.00;98244.81;6196194;28;20724;-58
2023/10/10 14:32:44;;;;;;;8.33;4.13;;;;;;;17.13;100.00;98255.31;6195073;28;20368;-58
2023/10/10 14:35:46;;;;;;;9.33;4.70;;;;;;;17.04;100.00;98246.97;6197371;28;20229;-58
2023/10/10 14:38:52;;;;;;;9.07;4.00;;;;;;;17.05;100.00;98255.88;6195143;28;20331;-58
2023/10/10 14:41:59;;;;;;;12.07;5.40;;;;;;;17.02;100.00;98258.00;6193341;28;20301;-58
2023/10/10 14:45:06;;;;;;;15.60;5.57;;;;;;;17.07;100.00;98257.19;6158770;28;20241;-53
2023/10/10 14:48:10;;;;;;;9.03;4.97;;;;;;;17.14;98.68;98255.06;6158250;28;20603;-58
2023/10/10 14:51:17;;;;;;;8.77;4.67;;;;;;;17.25;93.89;98250.47;6158371;28;20249;-57
2023/10/10 14:54:19;;;;;;;10.83;4.90;;;;;;;17.23;96.93;98258.00;6165784;28;20221;-58
2023/10/10 14:57:24;;;;;;;8.73;4.70;;;;;;;17.15;99.33;98250.47;6170225;28;20233;-58
2023/10/10 15:00:28;;;;;;;8.87;4.57;;;;;;;17.09;100.00;98248.84;6170515;28;20234;-58
2023/10/10 15:03:40;;;;;;;9.50;4.40;;;;;;;17.02;100.00;98247.25;6172737;28;20248;-58
2023/10/10 15:06:45;;;;;;;6.97;4.23;;;;;;;16.93;100.00;98259.63;6169424;28;20229;-58
2023/10/10 15:09:47;;;;;;;8.63;4.73;;;;;;;16.89;100.00;98261.22;6171232;28;20319;-58
2023/10/10 15:12:50;;;;;;;10.80;5.00;;;;;;;16.84;100.00;98263.09;6173279;28;20229;-57
2023/10/10 15:15:52;;;;;;;7.83;4.40;;;;;;;16.79;100.00;98277.38;6173528;28;20234;-58
2023/10/10 15:18:54;;;;;;;10.13;5.03;;;;;;;16.72;100.00;98263.38;6172960;28;20228;-57
2023/10/10 15:21:58;;;;;;;9.07;4.67;;;;;;;16.67;100.00;98255.28;6174608;28;20610;-58
2023/10/10 15:25:04;;;;;;;6.17;4.20;;;;;;;16.71;100.00;98259.03;6180235;28;20704;-57
2023/10/10 15:28:07;;;;;;;6.40;3.90;;;;;;;16.68;100.00;98259.56;6172689;28;20229;-58
2023/10/10 15:31:09;;;;;;;12.63;4.90;;;;;;;16.60;100.00;98260.09;6176017;28;20275;-60
2023/10/10 15:34:16;;;;;;;12.13;5.17;;;;;;;16.55;100.00;98254.69;6174417;28;20229;-59
2023/10/10 15:37:20;;;;;;;11.17;4.80;;;;;;;15.30;100.00;98073.72;6268108;23;20238;-94
2023/10/10 15:40:22;;;;;;;12.23;5.23;;;;;;;16.04;100.00;98200.81;6263205;28;20239;-94
2023/10/10 15:43:25;;;;;;;8.83;4.33;;;;;;;16.06;100.00;98214.78;6261459;28;20234;-94
2023/10/10 15:46:33;;;;;;;10.17;5.60;;;;;;;16.35;100.00;98258.94;6262763;28;20238;-96
2023/10/10 15:49:36;;;;;;;12.27;5.70;;;;;;;16.08;100.00;98218.03;6248872;28;20700;-96
2023/10/10 15:52:39;;;;;;;10.37;4.90;;;;;;;16.05;100.00;98219.34;6223898;28;20285;-94
2023/10/10 15:55:43;;;;;;;13.17;4.93;;;;;;;16.03;100.00;98224.19;6237934;28;20228;-94
2023/10/10 15:58:52;;;;;;;11.87;5.23;;;;;;;16.32;100.00;98281.00;6246115;28;20644;-94
2023/10/10 16:01:56;;;;;;;9.87;4.67;;;;;;;15.82;100.00;98220.63;6242432;28;20230;-96
2023/10/10 16:05:00;;;;;;;9.63;5.07;;;;;;;15.57;100.00;98185.56;6238104;28;20285;-96
2023/10/10 16:08:02;;;;;;;13.97;5.70;;;;;;;14.90;100.00;98093.94;6238138;28;20228;-95
2023/10/10 16:11:12;;;;;;;8.90;4.47;;;;;;;15.70;100.00;98249.56;6222443;28;20224;-94
2023/10/10 16:14:15;;;;;;;10.10;4.93;;;;;;;15.42;100.00;98194.34;6238972;28;20228;-95
2023/10/10 16:17:17;;;;;;;8.90;4.80;;;;;;;14.92;100.00;98144.63;6237721;28;20227;-94
2023/10/10 16:20:22;;;;;;;13.10;5.73;;;;;;;15.83;100.00;98312.78;6237496;28;20227;-95
2023/10/10 16:23:25;;;;;;;10.77;5.47;;;;;;;14.23;100.00;98072.22;6237522;28;20234;-94
2023/10/10 16:26:28;;;;;;;8.27;4.27;;;;;;;14.56;100.00;98139.00;6228499;28;20296;-93
2023/10/10 16:29:33;;;;;;;8.90;4.87;;;;;;;15.30;100.00;98252.78;6232085;28;20228;-94
2023/10/10 16:32:39;;;;;;;10.20;5.10;;;;;;;14.09;100.00;98104.03;6251035;28;20235;-94
2023/10/10 16:35:46;;;;;;;13.03;5.43;;;;;;;14.04;100.00;98106.63;6240338;28;20245;-94
2023/10/10 16:38:51;;;;;;;11.63;5.63;;;;;;;13.99;100.00;98120.81;6274283;28;20225;-94
2023/10/10 16:42:19;;;;;;;9.50;5.40;;;;;;;15.10;100.00;98304.44;6286922;28;20214;-95